Time;durP1;ratioP1;P1;durP2;ratioP2;P2;SDS_P1;SDS_P2;PMS_P1;PMS_P2;Temp;Humidity;BMP_temperature;BMP_pressure;BME280_temperature;BME280_humidity;BME280_pressure;Samples;Min_cycle;Max_cycle;Signal;HPM_P1;HPM_P2
2021/09/14 00:01:31;;;;;;;5.72;5.22;;;;;;;22.47;41.37;100069.59;4916870;29;20048;-80
2021/09/14 00:03:58;;;;;;;5.53;4.95;;;;;;;22.43;40.60;100064.78;4916559;29;20044;-81
2021/09/14 00:06:25;;;;;;;7.38;5.53;;;;;;;22.40;40.42;100063.25;4917356;29;20044;-80
2021/09/14 00:08:52;;;;;;;6.93;5.72;;;;;;;22.36;40.04;100058.41;4916737;29;20075;-81
2021/09/14 00:11:18;;;;;;;7.13;5.80;;;;;;;22.27;39.88;100062.84;4916812;29;20395;-81
2021/09/14 00:13:46;;;;;;;6.18;5.60;;;;;;;22.27;39.66;100062.84;4916966;29;20044;-80
2021/09/14 00:16:12;;;;;;;6.90;5.28;;;;;;;22.34;40.86;100066.53;4916826;29;20047;-81
2021/09/14 00:18:39;;;;;;;6.30;5.65;;;;;;;22.37;41.58;100068.03;4917164;29;20044;-80
2021/09/14 00:21:06;;;;;;;6.35;5.70;;;;;;;22.27;40.55;100056.72;4916741;29;20088;-81
2021/09/14 00:23:32;;;;;;;7.10;6.05;;;;;;;22.26;41.60;100062.97;4916871;29;20102;-81
2021/09/14 00:25:59;;;;;;;7.80;5.75;;;;;;;22.41;42.57;100070.22;4916476;29;20043;-81
2021/09/14 00:28:27;;;;;;;7.90;5.30;;;;;;;22.38;41.66;100075.84;4916725;29;20048;-81
2021/09/14 00:30:53;;;;;;;7.57;5.63;;;;;;;22.37;42.48;100068.03;4916526;29;20464;-81
2021/09/14 00:33:20;;;;;;;5.75;5.25;;;;;;;22.24;40.32;100065.81;4915297;29;20390;-81
2021/09/14 00:35:47;;;;;;;5.47;4.97;;;;;;;22.37;40.29;100058.25;4915769;29;20104;-81
2021/09/14 00:38:14;;;;;;;5.80;5.30;;;;;;;22.27;39.78;100059.38;4917795;29;20044;-81
2021/09/14 00:40:40;;;;;;;7.22;5.70;;;;;;;22.15;40.60;100056.09;4917254;29;20044;-80
2021/09/14 00:43:07;;;;;;;7.45;5.80;;;;;;;22.11;42.17;100049.47;4916449;29;20056;-81
2021/09/14 00:45:34;;;;;;;7.18;6.47;;;;;;;22.14;40.41;100044.66;4916634;29;20048;-80
2021/09/14 00:48:00;;;;;;;6.60;5.97;;;;;;;22.13;40.76;100050.13;4916134;29;20044;-80
2021/09/14 00:50:28;;;;;;;5.72;5.20;;;;;;;22.00;41.29;100045.22;4914975;29;20104;-79
2021/09/14 00:52:55;;;;;;;6.40;5.90;;;;;;;21.90;42.88;100047.97;4915907;29;20044;-80
2021/09/14 00:55:22;;;;;;;7.03;6.43;;;;;;;21.90;43.16;100047.13;4919814;29;20044;-80
2021/09/14 00:57:49;;;;;;;7.00;5.75;;;;;;;22.03;41.11;100044.88;4918704;29;20050;-80
2021/09/14 01:00:20;;;;;;;6.38;5.80;;;;;;;22.00;41.37;100047.00;4920391;29;20435;-80
2021/09/14 01:02:47;;;;;;;5.93;5.18;;;;;;;21.98;41.47;100048.00;4918659;29;20570;-79
2021/09/14 01:05:14;;;;;;;6.15;5.35;;;;;;;21.92;40.41;100053.94;4918932;29;20048;-79
2021/09/14 01:07:41;;;;;;;11.43;6.13;;;;;;;21.89;41.49;100048.09;4920156;29;20072;-79
2021/09/14 01:10:12;;;;;;;8.70;5.93;;;;;;;21.81;41.99;100043.56;4919795;29;20059;-79
2021/09/14 01:12:40;;;;;;;8.02;5.35;;;;;;;21.89;40.53;100045.44;4920038;29;20491;-78
2021/09/14 01:15:08;;;;;;;5.45;4.95;;;;;;;21.94;41.48;100048.47;4919736;29;20050;-79
2021/09/14 01:17:35;;;;;;;9.23;5.32;;;;;;;21.87;41.93;100048.25;4918569;29;20117;-79
2021/09/14 01:20:02;;;;;;;6.70;5.80;;;;;;;21.87;41.72;100044.78;4919576;29;20055;-79
2021/09/14 01:22:31;;;;;;;5.85;5.28;;;;;;;21.90;40.56;100044.47;4918055;29;20050;-80
2021/09/14 01:24:59;;;;;;;5.82;5.32;;;;;;;21.94;41.40;100045.81;4918182;29;20058;-78
2021/09/14 01:27:26;;;;;;;5.72;5.22;;;;;;;22.03;39.76;100044.06;4918193;29;20040;-80
2021/09/14 01:30:13;;;;;;;5.95;5.35;;;;;;;21.93;40.65;100050.28;4918115;29;20143;-81
2021/09/14 01:32:44;;;;;;;6.15;5.13;;;;;;;21.85;40.31;100044.09;4918508;29;20048;-78
2021/09/14 01:35:17;;;;;;;6.15;5.40;;;;;;;21.91;40.63;100040.84;4917899;29;20048;-80
2021/09/14 01:37:49;;;;;;;6.63;5.97;;;;;;;22.01;42.00;100044.22;4918219;29;20411;-79
2021/09/14 01:40:17;;;;;;;5.32;4.78;;;;;;;21.86;40.73;100041.28;4918255;29;20046;-78
2021/09/14 01:42:48;;;;;;;4.80;4.43;;;;;;;21.89;39.61;100043.66;4918119;29;20044;-79
2021/09/14 01:45:15;;;;;;;8.32;5.85;;;;;;;21.80;40.85;100044.56;4902905;29;20050;-80
2021/09/14 01:47:44;;;;;;;7.72;4.78;;;;;;;21.76;41.92;100040.53;4917901;29;20414;-79
2021/09/14 01:50:14;;;;;;;5.88;5.03;;;;;;;21.64;40.31;100039.13;4917899;29;20114;-79
2021/09/14 01:52:41;;;;;;;7.22;5.68;;;;;;;21.45;41.23;100046.25;4917471;29;20526;-79
2021/09/14 01:55:11;;;;;;;6.18;5.57;;;;;;;21.35;41.46;100045.47;4917761;29;20052;-79
2021/09/14 01:57:42;;;;;;;5.55;5.03;;;;;;;21.48;40.99;100046.94;4917732;29;20451;-79
2021/09/14 02:00:16;;;;;;;6.82;5.32;;;;;;;21.79;40.90;100047.38;4917994;29;20056;-79
2021/09/14 02:03:09;;;;;;;11.15;6.28;;;;;;;21.72;40.20;100044.47;4916623;29;20517;-79
2021/09/14 02:05:49;;;;;;;6.65;5.25;;;;;;;21.78;40.98;100049.16;4916735;29;20041;-79
2021/09/14 02:34:00;;;;;;;9.82;7.30;;;;;;;20.69;45.53;100056.31;4881247;29;20518;-77
2021/09/14 02:38:26;;;;;;;9.43;8.45;;;;;;;20.31;47.25;100060.72;4918759;29;20052;-80
2021/09/14 02:43:39;;;;;;;9.82;8.55;;;;;;;19.94;48.99;100062.47;4918353;29;20048;-78
2021/09/14 02:59:41;;;;;;;12.60;10.25;;;;;;;19.51;51.14;100072.47;4916635;29;20051;-79
2021/09/14 03:02:09;;;;;;;12.75;9.82;;;;;;;19.45;51.01;100080.97;4916268;29;20502;-79
2021/09/14 03:04:36;;;;;;;14.93;8.93;;;;;;;19.48;51.06;100072.75;4916600;29;20048;-78
2021/09/14 03:07:03;;;;;;;8.95;7.53;;;;;;;19.38;51.20;100067.44;4916377;29;20455;-79
2021/09/14 03:09:34;;;;;;;14.45;7.43;;;;;;;19.28;51.02;100061.34;4916441;29;20052;-80
2021/09/14 03:12:02;;;;;;;6.72;6.13;;;;;;;19.21;50.87;100065.47;4916398;29;20040;-81
2021/09/14 03:14:32;;;;;;;7.03;6.40;;;;;;;19.15;51.25;100068.66;4916199;29;20452;-79
2021/09/14 03:16:59;;;;;;;6.75;6.13;;;;;;;19.06;51.14;100058.91;4916663;29;20141;-81
2021/09/14 03:19:27;;;;;;;6.30;5.68;;;;;;;18.83;51.50;100067.03;4916326;29;20499;-79
2021/09/14 03:21:56;;;;;;;6.88;6.18;;;;;;;18.83;51.53;100067.03;4917350;29;20054;-80
2021/09/14 03:24:23;;;;;;;8.32;7.47;;;;;;;18.88;51.55;100055.25;4915838;29;20055;-78
2021/09/14 03:26:52;;;;;;;10.77;8.60;;;;;;;19.02;51.40;100063.63;4916429;29;20044;-79
2021/09/14 03:29:21;;;;;;;10.45;9.45;;;;;;;19.00;51.65;100073.50;4917639;29;20055;-79
2021/09/14 03:31:48;;;;;;;10.27;8.57;;;;;;;18.83;52.04;100071.50;4916267;29;20135;-80
2021/09/14 03:34:15;;;;;;;10.85;8.40;;;;;;;18.85;51.87;100080.09;4915807;29;20040;-79
2021/09/14 03:36:43;;;;;;;14.05;12.25;;;;;;;18.89;52.07;100078.03;4915948;29;20044;-79
2021/09/14 03:39:10;;;;;;;9.82;7.65;;;;;;;18.81;52.06;100073.44;4928317;29;20028;-81
2021/09/14 03:41:36;;;;;;;14.00;8.75;;;;;;;18.68;52.30;100072.81;4917161;29;20100;-79
2021/09/14 03:44:04;;;;;;;10.90;8.50;;;;;;;18.76;52.33;100078.28;4917102;29;20050;-80
2021/09/14 03:46:30;;;;;;;11.55;10.40;;;;;;;18.64;52.72;100066.94;4915643;29;20068;-78
2021/09/14 03:48:57;;;;;;;13.70;11.27;;;;;;;18.52;52.94;100068.81;4917475;29;20040;-79
2021/09/14 03:51:27;;;;;;;11.05;10.05;;;;;;;18.48;53.01;100063.94;4915252;29;20414;-80
2021/09/14 03:53:54;;;;;;;11.38;10.48;;;;;;;18.09;54.93;100065.53;4915968;29;20139;-78
2021/09/14 03:56:21;;;;;;;10.88;9.73;;;;;;;18.30;54.22;100061.91;4915639;29;20047;-79
2021/09/14 03:58:48;;;;;;;8.38;7.57;;;;;;;18.44;53.11;100060.75;4915381;29;20040;-80
2021/09/14 04:01:15;;;;;;;11.52;7.40;;;;;;;18.42;52.98;100061.81;4916861;29;20491;-80
2021/09/14 04:03:50;;;;;;;11.25;8.52;;;;;;;18.28;53.10;100068.31;4915674;29;20048;-80
2021/09/14 04:08:53;;;;;;;9.10;7.70;;;;;;;18.48;52.29;100061.31;4915682;29;20044;-81
2021/09/14 04:11:43;;;;;;;7.28;6.10;;;;;;;18.50;51.89;100059.38;4916881;29;20040;-80
2021/09/14 04:14:10;;;;;;;13.10;6.70;;;;;;;18.58;51.29;100065.66;4915487;29;20048;-79
2021/09/14 04:16:36;;;;;;;5.95;5.35;;;;;;;18.55;50.89;100058.00;4916787;29;20376;-80
2021/09/14 04:19:03;;;;;;;5.53;4.93;;;;;;;18.39;51.52;100067.38;4915216;29;20040;-80
2021/09/14 04:21:30;;;;;;;5.20;4.70;;;;;;;18.48;51.32;100061.31;4915471;29;20066;-80
2021/09/14 04:23:57;;;;;;;4.75;4.35;;;;;;;18.39;51.49;100062.94;4915365;29;20080;-80
2021/09/14 04:26:27;;;;;;;5.95;4.85;;;;;;;18.61;50.62;100069.84;4915526;29;20051;-81
2021/09/14 04:28:53;;;;;;;8.57;6.70;;;;;;;18.65;50.93;100065.16;4915846;29;20078;-80
2021/09/14 04:31:21;;;;;;;9.43;6.13;;;;;;;18.65;50.86;100071.25;4915337;29;20048;-80
2021/09/14 04:33:47;;;;;;;7.78;7.07;;;;;;;18.65;51.28;100073.91;4915067;29;20048;-81
2021/09/14 04:36:14;;;;;;;10.38;8.13;;;;;;;18.74;51.15;100072.28;4915288;29;20123;-81
2021/09/14 04:38:42;;;;;;;10.25;7.68;;;;;;;18.76;51.10;100075.66;4915294;29;20135;-81
2021/09/14 04:41:11;;;;;;;7.47;5.55;;;;;;;18.56;51.60;100075.53;4914976;29;20096;-80
2021/09/14 04:43:37;;;;;;;6.90;5.50;;;;;;;18.56;51.46;100074.69;4915298;29;20056;-79
2021/09/14 04:46:06;;;;;;;8.70;6.47;;;;;;;18.58;51.08;100067.47;4914959;29;20040;-79
2021/09/14 04:48:33;;;;;;;6.25;5.65;;;;;;;18.69;51.04;100079.75;4915248;29;20507;-80
2021/09/14 04:51:00;;;;;;;10.57;5.95;;;;;;;18.69;50.79;100075.31;4914450;29;20056;-80
2021/09/14 04:53:27;;;;;;;5.45;4.85;;;;;;;18.71;50.22;100077.84;4915327;29;20411;-79
2021/09/14 04:55:54;;;;;;;6.45;5.28;;;;;;;18.75;49.96;100077.44;4914747;29;20077;-79
2021/09/14 04:58:21;;;;;;;7.30;5.22;;;;;;;18.79;50.00;100076.19;4915205;29;20135;-79
2021/09/14 05:00:48;;;;;;;9.73;5.68;;;;;;;18.85;50.25;100069.53;4914511;29;20512;-79
2021/09/14 05:03:18;;;;;;;5.05;4.18;;;;;;;18.71;50.63;100072.56;4900114;29;20533;-80
2021/09/14 05:05:45;;;;;;;8.70;5.22;;;;;;;18.75;50.91;100068.66;4915284;29;20044;-80
2021/09/14 05:08:12;;;;;;;7.68;4.60;;;;;;;18.87;49.76;100072.91;4914775;29;20491;-80
2021/09/14 05:10:39;;;;;;;6.70;5.25;;;;;;;19.11;48.63;100070.72;4916393;29;20076;-78
2021/09/14 05:13:07;;;;;;;6.32;5.40;;;;;;;19.30;48.68;100072.59;4914737;29;20052;-79
2021/09/14 05:15:35;;;;;;;8.25;5.18;;;;;;;19.46;48.50;100079.16;4914773;29;20048;-78
2021/09/14 05:18:11;;;;;;;6.88;5.18;;;;;;;19.65;47.90;100073.06;4910477;29;20072;-82
2021/09/14 05:20:46;;;;;;;6.15;5.38;;;;;;;19.75;47.58;100074.72;4891642;29;20047;-81
2021/09/14 05:23:15;;;;;;;10.85;5.13;;;;;;;19.96;47.03;100076.38;4902619;29;20055;-82
2021/09/14 05:25:45;;;;;;;8.70;4.93;;;;;;;20.05;46.61;100080.84;4905766;29;20048;-82
2021/09/14 05:28:13;;;;;;;7.68;5.53;;;;;;;20.25;46.43;100087.78;4904963;29;20048;-79
2021/09/14 05:30:43;;;;;;;6.05;4.78;;;;;;;20.34;45.69;100091.34;4903650;29;20045;-80
2021/09/14 05:33:10;;;;;;;11.93;5.75;;;;;;;20.57;45.73;100091.91;4889803;29;20157;-77
2021/09/14 05:35:48;;;;;;;6.60;6.00;;;;;;;20.70;45.34;100092.41;4906512;29;20141;-76
2021/09/14 05:38:17;;;;;;;7.13;4.97;;;;;;;20.74;45.39;100091.13;4909473;29;20491;-78
2021/09/14 05:40:46;;;;;;;21.23;6.70;;;;;;;20.80;45.71;100090.53;4912564;29;20096;-77
2021/09/14 05:43:20;;;;;;;;;;;;;;;20.88;45.72;100092.47;4923224;29;20112;-81
2021/09/14 05:45:47;;;;;;;7.32;5.10;;;;;;;21.18;45.05;100100.09;4907274;29;19934;-77
2021/09/14 05:48:13;;;;;;;7.57;5.28;;;;;;;21.20;44.39;100099.97;4915379;29;20040;-77
2021/09/14 05:50:42;;;;;;;9.23;5.03;;;;;;;21.04;44.93;100102.41;4898873;29;20044;-78
2021/09/14 05:53:09;;;;;;;5.95;4.60;;;;;;;21.36;44.20;100099.34;4915601;29;20052;-78
2021/09/14 05:55:39;;;;;;;9.63;5.03;;;;;;;21.58;43.58;100100.75;4908364;29;20063;-78
2021/09/14 05:58:08;;;;;;;4.63;4.20;;;;;;;21.48;43.74;100102.63;4911539;29;20048;-79
2021/09/14 06:00:37;;;;;;;6.80;5.45;;;;;;;21.67;43.46;100102.47;4911535;29;20056;-80
2021/09/14 06:03:04;;;;;;;15.25;5.43;;;;;;;21.74;43.36;100106.19;4916330;29;20391;-81
2021/09/14 06:05:34;;;;;;;10.50;5.75;;;;;;;21.82;43.28;100103.59;4909289;29;20044;-81
2021/09/14 06:08:00;;;;;;;21.33;7.05;;;;;;;21.75;43.31;100113.16;4908004;29;20088;-83
2021/09/14 06:10:28;;;;;;;15.85;7.35;;;;;;;21.67;43.63;100116.56;4909120;29;20051;-81
2021/09/14 06:13:05;;;;;;;13.95;6.18;;;;;;;21.80;43.99;100118.84;4912769;29;20048;-78
2021/09/14 06:15:32;;;;;;;11.98;6.68;;;;;;;21.65;45.13;100123.00;4909775;29;20044;-81
2021/09/14 06:17:59;;;;;;;13.80;7.72;;;;;;;21.67;45.39;100123.69;4912303;29;20411;-79
2021/09/14 06:20:29;;;;;;;16.65;9.32;;;;;;;21.62;45.57;100128.59;4909331;29;20048;-79
2021/09/14 06:22:56;;;;;;;13.98;9.15;;;;;;;21.33;46.87;100142.91;4910625;29;20040;-79
2021/09/14 06:25:23;;;;;;;15.88;12.98;;;;;;;20.55;48.98;100146.81;4907284;29;20096;-77
2021/09/14 06:27:50;;;;;;;18.25;13.48;;;;;;;19.98;49.35;100153.81;4913519;29;20143;-79
2021/09/14 06:30:17;;;;;;;17.05;12.60;;;;;;;19.70;49.83;100151.00;4916030;29;20063;-79
2021/09/14 06:32:44;;;;;;;18.92;13.52;;;;;;;19.95;48.69;100149.63;4917025;29;20044;-78
2021/09/14 06:35:11;;;;;;;17.75;11.75;;;;;;;20.53;47.37;100143.47;4916529;29;20487;-80
2021/09/14 06:37:42;;;;;;;16.05;10.65;;;;;;;21.67;44.66;100139.59;4916420;29;20048;-80
2021/09/14 06:40:09;;;;;;;14.50;9.95;;;;;;;21.15;46.07;100149.94;4916262;29;20569;-79
2021/09/14 06:42:36;;;;;;;17.60;10.95;;;;;;;21.50;45.81;100148.38;4916387;29;20052;-83
2021/09/14 06:45:23;;;;;;;22.02;9.93;;;;;;;21.81;45.31;100155.00;4913947;29;20126;-76
2021/09/14 06:48:04;;;;;;;30.42;11.15;;;;;;;21.78;44.89;100163.25;4915109;29;20091;-78
2021/09/14 06:50:31;;;;;;;23.25;10.93;;;;;;;21.37;46.04;100157.53;4910402;29;20407;-78
2021/09/14 06:52:58;;;;;;;17.02;9.05;;;;;;;22.08;44.68;100158.56;4916611;29;20581;-75
2021/09/14 06:55:25;;;;;;;13.15;10.02;;;;;;;21.97;45.34;100152.50;4909445;29;20044;-78
2021/09/14 06:57:51;;;;;;;18.80;8.90;;;;;;;22.42;44.55;100166.66;4917038;29;20076;-77
2021/09/14 07:00:19;;;;;;;16.02;10.73;;;;;;;22.19;44.33;100161.00;4916958;29;20048;-77
2021/09/14 07:02:45;;;;;;;13.20;10.82;;;;;;;22.30;43.95;100162.59;4917100;29;20119;-76
2021/09/14 07:05:12;;;;;;;12.50;11.10;;;;;;;22.47;43.52;100169.69;4916061;29;20044;-77
2021/09/14 07:07:39;;;;;;;18.58;15.40;;;;;;;22.37;43.42;100167.16;4915809;29;20098;-78
2021/09/14 07:10:06;;;;;;;30.98;18.63;;;;;;;22.40;42.71;100169.47;4916759;29;20050;-78
2021/09/14 07:12:33;;;;;;;17.55;14.10;;;;;;;22.61;42.46;100170.97;4916537;29;20326;-78
2021/09/14 07:15:03;;;;;;;19.70;13.10;;;;;;;22.68;42.85;100172.81;4909627;29;20079;-80
2021/09/14 07:17:30;;;;;;;15.65;12.20;;;;;;;23.06;42.36;100180.53;4916426;29;20040;-78
2021/09/14 07:19:56;;;;;;;17.52;15.65;;;;;;;23.10;41.81;100169.44;4916540;29;20415;-77
2021/09/14 07:22:23;;;;;;;19.02;15.50;;;;;;;23.09;41.32;100166.94;4916967;29;20044;-77
2021/09/14 07:24:50;;;;;;;22.52;15.02;;;;;;;23.24;40.31;100170.66;4916607;29;20048;-76
2021/09/14 07:27:16;;;;;;;19.58;17.67;;;;;;;23.22;40.28;100175.28;4916615;29;20079;-78
2021/09/14 07:29:43;;;;;;;22.42;16.25;;;;;;;23.16;40.25;100182.09;4915830;29;20487;-77
2021/09/14 07:32:10;;;;;;;28.25;24.83;;;;;;;22.84;41.96;100182.72;4916683;29;20068;-80
2021/09/14 07:34:37;;;;;;;26.77;24.25;;;;;;;22.99;41.38;100180.34;4916615;29;20562;-79
2021/09/14 07:37:04;;;;;;;28.65;25.70;;;;;;;22.74;41.97;100192.63;4915506;29;20052;-78
2021/09/14 07:39:31;;;;;;;27.17;24.63;;;;;;;22.90;41.54;100195.41;4915755;29;20067;-79
2021/09/14 07:41:57;;;;;;;30.60;25.98;;;;;;;22.77;41.94;100189.66;4916900;29;20436;-76
2021/09/14 07:44:24;;;;;;;26.92;24.27;;;;;;;22.79;41.79;100194.81;4917077;29;20044;-80
2021/09/14 07:46:51;;;;;;;19.98;14.27;;;;;;;22.79;42.13;100194.81;4916090;29;20103;-79
2021/09/14 07:49:18;;;;;;;13.80;11.60;;;;;;;22.96;41.86;100200.13;4915569;29;20484;-79
2021/09/14 07:51:45;;;;;;;15.25;10.07;;;;;;;23.05;41.93;100195.66;4915729;29;20079;-82
2021/09/14 07:54:12;;;;;;;12.82;7.97;;;;;;;23.06;42.27;100196.47;4915986;29;20099;-81
2021/09/14 07:56:39;;;;;;;9.50;7.07;;;;;;;23.29;42.16;100191.47;4914893;29;20091;-82
2021/09/14 07:59:12;;;;;;;6.55;5.72;;;;;;;23.36;41.23;100189.81;4916468;29;20047;-83
2021/09/14 08:01:39;;;;;;;9.10;5.65;;;;;;;23.41;40.70;100191.00;4914503;29;20119;-80
2021/09/14 08:04:06;;;;;;;11.27;5.95;;;;;;;23.56;40.70;100190.41;4915887;29;20451;-81
2021/09/14 08:06:33;;;;;;;11.65;5.82;;;;;;;23.57;41.48;100189.41;4915430;29;20127;-80
2021/09/14 08:09:00;;;;;;;12.30;6.32;;;;;;;23.62;41.44;100195.88;4915399;29;20032;-80
2021/09/14 08:11:27;;;;;;;8.40;5.68;;;;;;;23.84;40.72;100178.50;4916001;29;20479;-79
2021/09/14 08:13:54;;;;;;;6.97;5.35;;;;;;;23.67;40.84;100182.13;4916352;29;20452;-84
2021/09/14 08:16:21;;;;;;;7.05;5.43;;;;;;;23.77;40.56;100181.00;4916002;29;20044;-79
2021/09/14 08:18:47;;;;;;;37.03;7.57;;;;;;;24.00;40.17;100175.84;4915688;29;20040;-84
2021/09/14 08:21:14;;;;;;;7.60;5.63;;;;;;;23.87;40.89;100183.50;4914129;29;20068;-87
2021/09/14 08:23:41;;;;;;;8.70;5.57;;;;;;;24.07;40.47;100181.34;4916075;29;20104;-83
2021/09/14 08:26:07;;;;;;;6.85;5.90;;;;;;;23.97;40.52;100170.03;4916510;29;20488;-89
2021/09/14 08:28:34;;;;;;;9.10;6.97;;;;;;;24.05;40.68;100178.03;4915978;29;20044;-85
2021/09/14 08:31:14;;;;;;;11.93;6.60;;;;;;;24.43;40.42;100176.56;4914861;29;20213;-83
2021/09/14 08:33:41;;;;;;;7.88;6.10;;;;;;;24.60;39.77;100181.88;4915964;29;20435;-81
2021/09/14 08:36:08;;;;;;;10.10;7.40;;;;;;;24.59;40.38;100174.88;4915391;29;20078;-86
2021/09/14 08:38:35;;;;;;;11.45;6.82;;;;;;;24.61;40.06;100178.19;4915524;29;20056;-83
2021/09/14 08:41:02;;;;;;;14.30;6.90;;;;;;;24.74;40.10;100174.00;4915360;29;20075;-82
2021/09/14 08:43:29;;;;;;;13.18;8.38;;;;;;;24.78;40.10;100174.53;4916351;29;20227;-83
2021/09/14 08:45:56;;;;;;;11.77;7.20;;;;;;;25.02;39.95;100182.44;4915221;29;20044;-86
2021/09/14 08:48:26;;;;;;;10.02;7.68;;;;;;;24.92;39.95;100173.78;4915120;29;20606;-83
2021/09/14 08:50:53;;;;;;;7.93;7.13;;;;;;;25.00;39.76;100179.13;4914650;29;20107;-83
2021/09/14 08:53:20;;;;;;;16.25;7.97;;;;;;;24.96;40.18;100174.28;4915838;29;20103;-86
2021/09/14 08:55:46;;;;;;;11.60;7.70;;;;;;;24.88;40.05;100175.16;4915964;29;20131;-81
2021/09/14 08:58:14;;;;;;;12.18;8.23;;;;;;;24.97;40.20;100173.28;4915505;29;20056;-81
2021/09/14 09:00:42;;;;;;;15.38;8.52;;;;;;;25.18;40.20;100175.41;4915180;29;20044;-83
2021/09/14 09:03:09;;;;;;;10.55;7.72;;;;;;;25.03;40.29;100176.09;4924384;29;20044;-84
2021/09/14 09:05:39;;;;;;;11.73;9.13;;;;;;;25.32;39.89;100164.03;4939519;29;20048;-85
2021/09/14 09:08:20;;;;;;;10.20;8.27;;;;;;;25.32;40.13;100172.84;4938962;29;20099;-86
2021/09/14 09:10:59;;;;;;;10.48;8.50;;;;;;;25.39;40.07;100172.97;4931294;29;20133;-85
2021/09/14 09:13:30;;;;;;;12.68;9.60;;;;;;;25.45;39.43;100169.59;4916995;29;20048;-87
2021/09/14 09:15:56;;;;;;;14.93;9.15;;;;;;;25.57;39.67;100170.91;4920061;29;20383;-84
2021/09/14 09:18:23;;;;;;;12.60;9.10;;;;;;;25.72;39.19;100180.81;4919222;29;20044;-86
2021/09/14 09:20:50;;;;;;;12.65;9.93;;;;;;;25.59;38.96;100179.56;4919539;29;20040;-85
2021/09/14 09:23:23;;;;;;;12.95;7.90;;;;;;;25.59;39.51;100173.38;4918993;29;20125;-82
2021/09/14 09:25:50;;;;;;;20.35;9.35;;;;;;;25.69;39.97;100171.31;4916037;29;20041;-85
2021/09/14 09:28:21;;;;;;;15.95;10.13;;;;;;;25.42;40.44;100175.31;4919183;29;20048;-82
2021/09/14 09:30:54;;;;;;;21.30;9.57;;;;;;;25.65;39.54;100186.03;4919492;29;20056;-86
2021/09/14 09:33:31;;;;;;;15.45;10.10;;;;;;;25.85;39.45;100184.59;4919402;29;20088;-83
2021/09/14 09:36:09;;;;;;;19.35;10.95;;;;;;;25.87;40.11;100189.75;4919416;29;20119;-88
2021/09/14 09:38:48;;;;;;;13.93;9.80;;;;;;;25.88;39.90;100191.41;4919540;29;20083;-81
2021/09/14 09:41:20;;;;;;;17.60;10.38;;;;;;;25.98;39.58;100192.00;4918608;29;20105;-82
2021/09/14 09:43:47;;;;;;;15.00;10.75;;;;;;;26.04;39.75;100188.63;4928659;29;20052;-86
2021/09/14 09:46:19;;;;;;;16.63;10.40;;;;;;;25.98;40.03;100188.50;4914603;29;20086;-85
2021/09/14 09:48:48;;;;;;;18.60;12.48;;;;;;;25.78;40.63;100182.78;4915297;29;20059;-82
2021/09/14 09:51:15;;;;;;;18.33;11.57;;;;;;;26.08;40.24;100192.59;4918209;29;20123;-83
2021/09/14 09:53:43;;;;;;;13.25;11.25;;;;;;;26.23;39.76;100189.16;4918651;29;20040;-81
2021/09/14 09:56:10;;;;;;;14.55;10.98;;;;;;;26.45;38.81;100183.00;4918805;29;20128;-88
2021/09/14 09:58:36;;;;;;;13.13;11.07;;;;;;;26.33;38.81;100181.75;4919495;29;20044;-89
2021/09/14 10:01:09;;;;;;;19.42;10.95;;;;;;;26.51;38.22;100192.94;4918697;29;20060;-87
2021/09/14 10:03:45;;;;;;;19.23;13.68;;;;;;;26.41;39.07;100187.00;4917342;29;20050;-87
2021/09/14 10:06:14;;;;;;;18.88;11.57;;;;;;;26.36;38.85;100192.06;4918905;29;20041;-86
2021/09/14 10:08:41;;;;;;;18.73;12.90;;;;;;;26.30;39.41;100198.94;4911112;29;20108;-85
2021/09/14 10:11:07;;;;;;;15.07;11.60;;;;;;;26.61;39.52;100196.19;4918861;29;20040;-84
2021/09/14 10:13:41;;;;;;;20.88;13.85;;;;;;;26.44;39.34;100194.69;4917678;29;20044;-88
2021/09/14 10:16:11;;;;;;;26.40;11.85;;;;;;;26.44;38.90;100199.22;4918995;29;20076;-90
2021/09/14 10:18:38;;;;;;;15.93;13.50;;;;;;;26.29;39.24;100185.78;4917106;29;20111;-83
2021/09/14 10:21:05;;;;;;;17.17;12.88;;;;;;;26.48;38.56;100188.00;4916416;29;20037;-89
2021/09/14 10:23:38;;;;;;;16.85;13.10;;;;;;;26.78;38.55;100185.34;4916422;29;20044;-87
2021/09/14 10:26:08;;;;;;;12.70;10.00;;;;;;;26.97;37.08;100186.66;4914954;29;20048;-86
2021/09/14 10:28:45;;;;;;;22.60;14.48;;;;;;;26.86;37.92;100179.91;4915719;29;20048;-87
2021/09/14 10:31:18;;;;;;;21.77;13.43;;;;;;;26.89;38.05;100174.19;4916684;29;20390;-87
2021/09/14 10:33:45;;;;;;;17.25;12.13;;;;;;;27.22;37.02;100180.03;4917770;29;20040;-83
2021/09/14 10:36:13;;;;;;;20.17;13.15;;;;;;;27.26;37.45;100183.16;4918073;29;20079;-83
2021/09/14 10:38:49;;;;;;;20.98;15.10;;;;;;;26.78;38.07;100185.34;4918036;29;20111;-82
2021/09/14 10:41:17;;;;;;;22.90;15.30;;;;;;;26.71;38.13;100187.91;4917322;29;20491;-80
2021/09/14 10:44:00;;;;;;;23.95;18.15;;;;;;;26.42;39.14;100180.69;4917980;29;20040;-82
2021/09/14 10:46:31;;;;;;;26.38;18.38;;;;;;;26.87;38.80;100184.25;4917062;29;20784;-83
2021/09/14 10:49:11;;;;;;;16.98;10.82;;;;;;;27.26;37.20;100177.78;4916572;29;20056;-79
2021/09/14 10:51:38;;;;;;;23.02;15.00;;;;;;;27.11;37.24;100170.63;4916538;29;20522;-80
2021/09/14 10:54:05;;;;;;;19.10;11.40;;;;;;;27.29;37.00;100167.56;4916167;29;20052;-79
2021/09/14 10:56:32;;;;;;;20.98;12.68;;;;;;;27.62;36.38;100173.28;4917146;29;20048;-82
2021/09/14 10:58:59;;;;;;;18.25;13.48;;;;;;;27.11;36.91;100170.63;4911187;29;20044;-81
2021/09/14 11:01:26;;;;;;;22.77;15.93;;;;;;;27.10;37.95;100168.94;4907398;29;20499;-82
2021/09/14 11:04:02;;;;;;;27.33;17.40;;;;;;;27.33;37.54;100162.66;4908296;29;20104;-84
2021/09/14 11:06:29;;;;;;;21.15;14.30;;;;;;;27.55;36.98;100161.69;4906941;29;20059;-79
2021/09/14 11:09:00;;;;;;;22.48;14.27;;;;;;;27.40;36.95;100169.75;4909270;29;20040;-82
2021/09/14 11:11:28;;;;;;;17.02;13.50;;;;;;;27.95;36.29;100151.41;4909265;29;20040;-83
2021/09/14 11:13:58;;;;;;;19.67;13.95;;;;;;;27.13;37.02;100154.38;4907969;29;20052;-82
2021/09/14 11:16:25;;;;;;;20.17;11.68;;;;;;;27.80;36.04;100146.09;4908572;29;20036;-82
2021/09/14 11:18:59;;;;;;;20.20;13.02;;;;;;;27.75;36.67;100128.94;4911505;29;20048;-80
2021/09/14 11:21:25;;;;;;;21.27;13.57;;;;;;;27.71;36.97;100138.41;4911771;29;20044;-80
2021/09/14 11:23:52;;;;;;;16.63;12.63;;;;;;;27.60;36.55;100145.88;4913685;29;20044;-82
2021/09/14 11:26:20;;;;;;;23.67;11.82;;;;;;;27.46;36.50;100157.47;4907735;29;20036;-81
2021/09/14 11:28:59;;;;;;;12.52;11.13;;;;;;;28.19;35.56;100148.34;4908992;29;20080;-81
2021/09/14 11:31:28;;;;;;;16.20;12.18;;;;;;;28.07;36.01;100147.22;4911477;29;20111;-81
2021/09/14 11:33:55;;;;;;;49.30;15.85;;;;;;;27.68;36.54;100143.06;4915694;29;20135;-82
2021/09/14 11:36:22;;;;;;;23.52;13.55;;;;;;;27.97;36.11;100141.34;4914627;29;20620;-83
2021/09/14 11:39:00;;;;;;;22.35;12.05;;;;;;;28.34;35.89;100137.56;4913062;29;20400;-80
2021/09/14 11:41:36;;;;;;;16.25;10.50;;;;;;;28.48;35.30;100133.09;4910714;29;20040;-79
2021/09/14 11:44:04;;;;;;;22.30;11.30;;;;;;;28.29;35.81;100136.47;4912843;29;20044;-83
2021/09/14 11:46:31;;;;;;;11.50;10.40;;;;;;;28.04;35.74;100128.81;4913583;29;20043;-80
2021/09/14 11:49:00;;;;;;;11.00;9.63;;;;;;;28.91;34.18;100128.41;4913644;29;20048;-82
2021/09/14 11:51:29;;;;;;;16.85;9.02;;;;;;;29.06;33.80;100120.25;4911906;29;20048;-79
2021/09/14 11:53:56;;;;;;;12.55;8.70;;;;;;;28.67;34.55;100119.00;4911491;29;20040;-79
2021/09/14 11:56:27;;;;;;;11.13;9.30;;;;;;;28.73;34.16;100117.38;4912211;29;20113;-80
2021/09/14 11:58:54;;;;;;;13.73;9.57;;;;;;;28.34;34.70;100123.34;4912106;29;20088;-78
2021/09/14 12:01:30;;;;;;;15.30;11.25;;;;;;;28.57;34.51;100121.22;4913052;29;20459;-81
2021/09/14 12:03:57;;;;;;;10.90;9.07;;;;;;;29.30;33.45;100124.28;4912814;29;20041;-81
2021/09/14 12:06:26;;;;;;;10.98;9.68;;;;;;;28.73;33.87;100121.94;4912463;29;20112;-80
2021/09/14 12:08:57;;;;;;;12.25;9.77;;;;;;;28.50;34.30;100127.53;4912659;29;20048;-80
2021/09/14 12:11:24;;;;;;;10.23;9.23;;;;;;;28.49;34.17;100121.34;4913059;29;20048;-83